Time;durP1;ratioP1;P1;durP2;ratioP2;P2;SDS_P1;SDS_P2;PMS_P1;PMS_P2;Temp;Humidity;BMP_temperature;BMP_pressure;BME280_temperature;BME280_humidity;BME280_pressure;Samples;Min_cycle;Max_cycle;Signal;HPM_P1;HPM_P2
2023/04/03 00:01:28;;;;;;;2.40;2.10;;;;;;;13.19;65.83;102913.84;5031790;28;20099;-47
2023/04/03 00:03:54;;;;;;;4.13;2.10;;;;;;;13.19;65.99;102916.53;5029667;28;20120;-45
2023/04/03 00:06:20;;;;;;;5.40;1.90;;;;;;;13.18;66.17;102931.72;5033963;28;20033;-46
2023/04/03 00:08:46;;;;;;;1.70;1.60;;;;;;;13.18;65.71;102937.06;5033086;28;20049;-48
2023/04/03 00:11:11;;;;;;;2.97;2.00;;;;;;;13.17;65.93;102926.44;5022589;28;20034;-46
2023/04/03 00:13:38;;;;;;;2.70;2.03;;;;;;;13.17;65.66;102932.63;5034110;28;20040;-46
2023/04/03 00:16:04;;;;;;;2.90;2.13;;;;;;;13.17;65.59;102935.31;5031449;28;20045;-46
2023/04/03 00:18:31;;;;;;;2.70;2.10;;;;;;;13.16;65.83;102935.41;5036579;28;20029;-48
2023/04/03 00:20:56;;;;;;;3.20;2.05;;;;;;;13.16;65.76;102938.06;5033737;28;20475;-48
2023/04/03 00:23:23;;;;;;;3.20;1.85;;;;;;;13.15;65.97;102931.84;5028432;28;20030;-45
2023/04/03 00:25:49;;;;;;;3.22;1.83;;;;;;;13.14;65.86;102943.47;5030220;28;20037;-48
2023/04/03 00:28:15;;;;;;;3.28;2.17;;;;;;;13.15;65.79;102941.66;5033825;28;20025;-46
2023/04/03 00:30:40;;;;;;;2.17;1.95;;;;;;;13.14;65.98;102945.28;5030832;28;20366;-46
2023/04/03 00:33:06;;;;;;;2.53;1.83;;;;;;;13.14;65.86;102947.97;5027850;28;20037;-46
2023/04/03 00:35:33;;;;;;;2.53;2.00;;;;;;;13.13;65.80;102944.41;5032279;28;20383;-49
2023/04/03 00:37:59;;;;;;;3.78;2.13;;;;;;;13.12;65.59;102942.69;5035186;28;20025;-48
2023/04/03 00:40:26;;;;;;;2.28;1.90;;;;;;;13.13;65.92;102949.75;5038435;28;20531;-48
2023/04/03 00:42:56;;;;;;;3.38;2.00;;;;;;;13.11;65.69;102948.94;5034674;28;20501;-47
2023/04/03 00:45:36;;;;;;;3.53;2.00;;;;;;;13.13;66.04;102955.09;5031277;28;20036;-47
2023/04/03 00:48:05;;;;;;;2.22;2.05;;;;;;;13.10;65.55;102958.78;5031922;28;20111;-48
2023/04/03 00:50:32;;;;;;;4.65;2.03;;;;;;;13.09;65.90;102958.84;5033400;28;20077;-45
2023/04/03 00:52:58;;;;;;;2.63;1.80;;;;;;;13.08;65.73;102957.97;5031109;28;20029;-48
2023/04/03 00:55:24;;;;;;;3.70;1.95;;;;;;;13.08;65.87;102966.00;5026187;28;20537;-46
2023/04/03 00:57:51;;;;;;;3.20;1.98;;;;;;;13.08;65.90;102959.78;5033453;28;20475;-49
2023/04/03 01:00:20;;;;;;;2.08;1.50;;;;;;;13.07;65.80;102956.22;5034499;28;20379;-47
2023/04/03 01:02:45;;;;;;;3.00;2.00;;;;;;;13.07;65.78;102964.25;5036753;28;20034;-47
2023/04/03 01:05:12;;;;;;;2.85;2.00;;;;;;;13.08;65.78;102959.78;5032325;28;20083;-49
2023/04/03 01:07:38;;;;;;;2.65;1.98;;;;;;;13.06;65.66;102953.59;5028323;28;20361;-48
2023/04/03 01:10:07;;;;;;;2.33;2.08;;;;;;;13.06;65.69;102951.81;5031277;28;20087;-46
2023/04/03 01:12:41;;;;;;;2.35;2.03;;;;;;;13.07;65.68;102958.03;5030404;28;20057;-49
2023/04/03 01:15:11;;;;;;;3.33;2.08;;;;;;;13.04;66.14;102953.69;5033910;28;20041;-47
2023/04/03 01:17:51;;;;;;;2.40;2.00;;;;;;;13.06;65.94;102957.16;5026416;28;20112;-48
2023/04/03 01:20:32;;;;;;;3.05;2.00;;;;;;;13.08;66.00;102957.13;5031279;28;20021;-47
2023/04/03 01:23:01;;;;;;;2.45;1.95;;;;;;;13.05;65.91;102957.22;5030208;28;20021;-47
2023/04/03 01:25:27;;;;;;;3.90;2.08;;;;;;;13.04;65.95;102960.81;5028268;28;20033;-49
2023/04/03 01:27:52;;;;;;;2.20;2.00;;;;;;;13.03;65.75;102959.09;5034617;28;20086;-48
2023/04/03 01:30:20;;;;;;;1.60;1.50;;;;;;;13.03;65.65;102965.31;5030263;28;20096;-48
2023/04/03 01:32:46;;;;;;;1.92;1.60;;;;;;;13.03;65.83;102969.78;5031465;28;20191;-48
2023/04/03 01:35:12;;;;;;;1.73;1.63;;;;;;;13.03;65.83;102964.44;5025053;28;20112;-45
2023/04/03 01:37:37;;;;;;;1.65;1.55;;;;;;;13.01;65.69;102955.63;5033562;28;20459;-47
2023/04/03 01:40:04;;;;;;;2.10;1.73;;;;;;;13.01;65.81;102960.97;5031242;28;20033;-48
2023/04/03 01:42:29;;;;;;;1.70;1.60;;;;;;;13.00;65.58;102960.06;5025850;28;20034;-46
2023/04/03 01:44:55;;;;;;;2.92;2.00;;;;;;;13.01;65.81;102960.97;5029163;28;20939;-48
2023/04/03 01:47:21;;;;;;;1.50;1.40;;;;;;;13.00;65.81;102959.19;5029161;28;20513;-47
2023/04/03 01:49:47;;;;;;;2.28;2.00;;;;;;;12.99;65.88;102960.16;5029135;28;20033;-48
2023/04/03 01:52:12;;;;;;;1.88;1.60;;;;;;;13.00;65.93;102965.41;5030488;28;20050;-48
2023/04/03 01:54:38;;;;;;;2.72;2.00;;;;;;;13.01;66.12;102968.97;5028276;28;20038;-48
2023/04/03 01:57:03;;;;;;;2.75;2.22;;;;;;;13.00;66.10;102961.88;5028858;28;20030;-49
2023/04/03 01:59:29;;;;;;;2.42;1.77;;;;;;;12.99;65.90;102962.81;5027327;28;20495;-48
2023/04/03 02:01:54;;;;;;;2.35;2.00;;;;;;;12.99;65.84;102968.19;5032807;28;20112;-46
2023/04/03 02:04:19;;;;;;;2.10;1.90;;;;;;;12.99;65.81;102968.19;5024413;28;20077;-46
2023/04/03 02:06:49;;;;;;;1.83;1.70;;;;;;;12.98;65.94;102966.41;5033666;28;20032;-48
2023/04/03 02:09:14;;;;;;;2.53;1.95;;;;;;;12.96;65.89;102965.63;5028616;28;20029;-48
2023/04/03 02:11:40;;;;;;;2.53;2.00;;;;;;;12.96;65.95;102968.28;5035689;28;20060;-46
2023/04/03 02:14:06;;;;;;;2.33;1.70;;;;;;;12.96;65.46;102974.50;5033044;28;20435;-46
2023/04/03 02:16:31;;;;;;;2.35;1.95;;;;;;;12.96;65.60;102968.28;5029754;28;20067;-45
2023/04/03 02:18:57;;;;;;;3.05;1.95;;;;;;;12.95;65.72;102970.09;5029710;28;20375;-46
2023/04/03 02:21:22;;;;;;;2.83;1.77;;;;;;;12.95;65.88;102977.25;5031320;28;20034;-47
2023/04/03 02:23:48;;;;;;;2.10;1.90;;;;;;;12.94;65.48;102970.16;5029331;28;20033;-48
2023/04/03 02:26:15;;;;;;;2.53;1.95;;;;;;;12.94;66.04;102967.47;5027360;28;20116;-46
2023/04/03 02:28:43;;;;;;;2.55;1.55;;;;;;;12.93;65.57;102971.06;5029592;28;20040;-47
2023/04/03 02:31:09;;;;;;;2.28;1.98;;;;;;;12.93;65.64;102976.41;5031542;28;20021;-47
2023/04/03 02:33:36;;;;;;;4.95;1.75;;;;;;;12.93;65.74;102979.09;5028014;28;20053;-49
2023/04/03 02:36:03;;;;;;;2.40;1.83;;;;;;;12.92;65.78;102978.22;5027243;28;20044;-49
2023/04/03 02:38:28;;;;;;;2.30;1.77;;;;;;;12.91;65.44;102987.19;5030623;28;20391;-48
2023/04/03 02:41:03;;;;;;;1.73;1.60;;;;;;;12.91;65.95;102980.03;5034386;28;20040;-48
2023/04/03 02:43:29;;;;;;;1.83;1.70;;;;;;;12.91;65.76;102989.88;5026759;28;20026;-48
2023/04/03 02:45:54;;;;;;;2.78;1.70;;;;;;;12.90;65.80;102986.31;5028319;28;20040;-46
2023/04/03 02:48:19;;;;;;;1.90;1.70;;;;;;;12.91;65.62;102993.41;5033932;28;20032;-45
2023/04/03 02:50:45;;;;;;;2.30;1.63;;;;;;;12.90;65.80;102991.66;5030269;28;20143;-46
2023/04/03 02:53:10;;;;;;;2.42;1.70;;;;;;;12.90;65.61;102997.00;5028739;28;20113;-47
2023/04/03 02:55:36;;;;;;;2.85;2.00;;;;;;;12.89;65.54;102999.75;5028164;28;20041;-49
2023/04/03 02:58:01;;;;;;;2.00;1.58;;;;;;;12.89;65.71;102995.28;5030189;28;20029;-48
2023/04/03 03:00:26;;;;;;;2.92;1.70;;;;;;;12.88;65.89;102998.88;5028858;28;20521;-48
2023/04/03 03:02:52;;;;;;;1.98;1.60;;;;;;;12.87;65.46;102994.47;5023380;28;20400;-46
2023/04/03 03:05:17;;;;;;;3.75;2.05;;;;;;;12.88;65.40;102998.00;5028994;28;20128;-46
2023/04/03 03:07:43;;;;;;;1.80;1.50;;;;;;;12.87;65.51;102988.22;5031717;28;20045;-47
2023/04/03 03:10:09;;;;;;;2.10;1.52;;;;;;;12.86;65.35;102984.69;5026196;28;20521;-49
2023/04/03 03:12:34;;;;;;;2.35;1.70;;;;;;;12.86;65.76;102990.03;5029728;28;20053;-46
2023/04/03 03:14:59;;;;;;;3.22;1.77;;;;;;;12.86;65.24;102984.69;5028598;28;20033;-47
2023/04/03 03:17:25;;;;;;;2.97;1.98;;;;;;;12.86;65.66;102990.03;5031798;28;20535;-49
2023/04/03 03:19:50;;;;;;;2.42;1.63;;;;;;;12.85;65.22;102985.63;5028847;28;20034;-46
2023/04/03 03:22:16;;;;;;;2.33;1.67;;;;;;;12.85;65.68;102990.97;5027201;28;20140;-48
2023/04/03 03:24:41;;;;;;;1.70;1.40;;;;;;;12.84;65.18;102991.91;5030114;28;20278;-45
2023/04/03 03:27:07;;;;;;;2.35;1.65;;;;;;;12.84;65.46;102999.91;5030622;28;20029;-48
2023/04/03 03:29:32;;;;;;;2.25;1.50;;;;;;;12.84;65.31;102994.56;5028924;28;20041;-46
2023/04/03 03:31:58;;;;;;;2.35;1.75;;;;;;;12.85;65.32;102998.09;5027984;28;20469;-46
2023/04/03 03:34:23;;;;;;;2.08;1.60;;;;;;;12.83;65.53;102998.19;5031273;28;20053;-48
2023/04/03 03:36:48;;;;;;;2.45;1.58;;;;;;;12.83;65.37;103000.88;5028816;28;20124;-46
2023/04/03 03:39:14;;;;;;;1.70;1.50;;;;;;;12.83;65.41;103006.22;5026482;28;20395;-44
2023/04/03 03:41:40;;;;;;;1.70;1.60;;;;;;;12.82;65.31;102999.13;5026186;28;20151;-46
2023/04/03 03:44:05;;;;;;;2.72;1.40;;;;;;;12.82;65.21;103006.28;5028479;28;20120;-48
2023/04/03 03:46:31;;;;;;;2.90;1.58;;;;;;;12.81;65.20;103016.09;5032634;28;20039;-49
2023/04/03 03:48:56;;;;;;;1.63;1.30;;;;;;;12.81;65.31;103013.44;5033353;28;20033;-48
2023/04/03 03:51:21;;;;;;;2.58;1.58;;;;;;;12.82;65.49;103012.47;5033788;28;20033;-46
2023/04/03 03:53:47;;;;;;;1.55;1.25;;;;;;;12.81;65.24;103018.78;5032565;28;20116;-48
2023/04/03 03:56:12;;;;;;;3.35;1.60;;;;;;;12.81;65.29;103016.09;5034413;28;20081;-47
2023/04/03 03:58:38;;;;;;;2.35;1.10;;;;;;;12.80;65.38;103019.69;5028712;28;20120;-46
2023/04/03 04:01:05;;;;;;;2.35;1.50;;;;;;;12.79;65.22;103025.94;5032454;28;20084;-46
2023/04/03 04:03:30;;;;;;;1.73;1.48;;;;;;;12.79;65.38;103019.75;5030086;28;20025;-49
2023/04/03 04:05:56;;;;;;;1.70;1.50;;;;;;;12.79;65.17;103020.59;5032259;28;20045;-44
2023/04/03 04:08:22;;;;;;;2.22;1.33;;;;;;;12.78;65.43;103018.88;5031818;28;20028;-49
2023/04/03 04:10:47;;;;;;;2.70;1.35;;;;;;;12.78;65.43;103024.22;5029208;28;20086;-49
2023/04/03 04:13:13;;;;;;;1.95;1.17;;;;;;;12.77;64.95;103022.47;5033231;28;20445;-44
2023/04/03 04:15:38;;;;;;;1.65;1.33;;;;;;;12.77;65.08;103024.28;5031104;28;20029;-49
2023/04/03 04:18:03;;;;;;;1.92;1.27;;;;;;;12.77;65.11;103027.81;5030168;28;20515;-48
2023/04/03 04:20:29;;;;;;;2.45;1.48;;;;;;;12.76;65.21;103026.09;5031231;28;20041;-48
2023/04/03 04:22:54;;;;;;;1.50;1.20;;;;;;;12.76;65.30;103028.75;5036247;28;20036;-46
2023/04/03 04:25:20;;;;;;;1.92;1.40;;;;;;;12.76;65.17;103020.75;5039515;28;20479;-47
2023/04/03 04:27:45;;;;;;;1.88;1.45;;;;;;;12.74;65.20;103017.25;5032917;28;20394;-47
2023/04/03 04:30:11;;;;;;;1.90;1.35;;;;;;;12.73;65.19;103028.88;5030277;28;20021;-47
2023/04/03 04:32:37;;;;;;;2.53;1.33;;;;;;;12.73;65.42;103023.53;5032716;28;20060;-47
2023/04/03 04:35:03;;;;;;;2.15;1.27;;;;;;;12.73;65.08;103026.19;5029859;28;20062;-45
2023/04/03 04:37:29;;;;;;;1.55;1.25;;;;;;;12.73;64.99;103025.31;5036406;28;20041;-48
2023/04/03 04:39:55;;;;;;;2.17;1.50;;;;;;;12.73;65.26;103026.19;5030279;28;20132;-48
2023/04/03 04:42:20;;;;;;;1.52;1.40;;;;;;;12.73;65.63;103020.84;5032431;28;20446;-44
2023/04/03 04:44:45;;;;;;;1.30;1.20;;;;;;;12.72;65.14;103021.78;5031038;28;20037;-46
2023/04/03 04:47:11;;;;;;;1.13;0.98;;;;;;;12.71;65.09;103026.25;5038862;28;20040;-48
2023/04/03 04:49:36;;;;;;;2.05;1.15;;;;;;;12.71;65.37;103030.72;5033642;28;20072;-45
2023/04/03 04:52:02;;;;;;;1.90;1.48;;;;;;;12.73;65.39;103030.69;5033756;28;20541;-46
2023/04/03 04:54:27;;;;;;;2.33;1.10;;;;;;;12.70;65.28;103035.22;5033140;28;20076;-45
2023/04/03 04:56:52;;;;;;;1.35;1.10;;;;;;;12.70;65.21;103037.88;5028807;28;20117;-46
2023/04/03 04:59:18;;;;;;;1.75;1.33;;;;;;;12.71;65.10;103038.75;5030865;28;20051;-46
2023/04/03 05:01:43;;;;;;;1.30;1.17;;;;;;;12.70;65.21;103042.38;5033148;28;20467;-44
2023/04/03 05:04:09;;;;;;;1.60;1.00;;;;;;;12.69;65.03;103038.78;5032541;28;20033;-46
2023/04/03 05:06:35;;;;;;;1.75;1.20;;;;;;;12.69;65.35;103037.94;5028808;28;20029;-45
2023/04/03 05:09:00;;;;;;;1.52;0.98;;;;;;;12.69;65.00;103045.94;5033906;28;20037;-45
2023/04/03 05:11:26;;;;;;;1.08;0.98;;;;;;;12.68;65.23;103045.09;5031008;28;20068;-46
2023/04/03 05:13:52;;;;;;;3.35;1.45;;;;;;;12.69;64.83;103051.31;5029842;28;20045;-47
2023/04/03 05:16:17;;;;;;;1.83;1.10;;;;;;;12.69;65.05;103048.63;5031651;28;20132;-47
2023/04/03 05:18:42;;;;;;;1.60;1.20;;;;;;;12.68;64.89;103049.56;5033141;28;20021;-48
2023/04/03 05:21:08;;;;;;;2.47;1.33;;;;;;;12.67;65.19;103043.34;5027308;28;20108;-47
2023/04/03 05:23:33;;;;;;;2.70;1.40;;;;;;;12.66;64.97;103044.28;5028855;28;20026;-48
2023/04/03 05:25:58;;;;;;;1.95;1.20;;;;;;;12.67;64.71;103047.81;5031442;28;20025;-48
2023/04/03 05:28:24;;;;;;;2.10;1.10;;;;;;;12.66;64.91;103054.06;5030565;28;20069;-48
2023/04/03 05:30:55;;;;;;;1.20;0.98;;;;;;;12.65;64.58;103049.69;5039110;28;20083;-47
2023/04/03 05:33:20;;;;;;;3.17;1.15;;;;;;;12.66;64.74;103048.72;5030278;28;20045;-44
2023/04/03 05:35:46;;;;;;;1.50;1.20;;;;;;;12.65;64.69;103053.22;5027287;28;20063;-47
2023/04/03 05:38:11;;;;;;;1.75;1.30;;;;;;;12.64;64.80;103053.25;5033731;28;20060;-49
2023/04/03 05:40:37;;;;;;;0.98;0.90;;;;;;;12.64;64.99;103059.50;5031795;28;20031;-46
2023/04/03 05:43:03;;;;;;;1.83;1.17;;;;;;;12.63;64.71;103063.09;5026868;28;20033;-48
2023/04/03 05:45:28;;;;;;;1.75;1.10;;;;;;;12.63;64.74;103063.09;5038391;28;20520;-47
2023/04/03 05:47:54;;;;;;;1.58;1.13;;;;;;;12.64;64.44;103069.28;5035919;28;20033;-45
2023/04/03 05:50:19;;;;;;;1.10;1.00;;;;;;;12.63;64.70;103064.91;5032126;28;20074;-49
2023/04/03 05:52:48;;;;;;;1.67;1.00;;;;;;;12.63;64.44;103071.09;5031488;28;20478;-48
2023/04/03 05:55:14;;;;;;;2.17;1.13;;;;;;;12.63;64.48;103070.25;5028494;28;20037;-49
2023/04/03 05:57:39;;;;;;;3.38;1.67;;;;;;;12.63;64.22;103070.25;5033833;28;20037;-49
2023/04/03 06:00:06;;;;;;;1.33;1.00;;;;;;;12.63;64.41;103070.25;5028245;28;20381;-47
2023/04/03 06:02:31;;;;;;;1.58;0.93;;;;;;;12.62;64.36;103071.16;5034959;28;20091;-47
2023/04/03 06:04:57;;;;;;;1.65;1.08;;;;;;;12.64;63.93;103071.97;5032417;28;20061;-46
2023/04/03 06:07:27;;;;;;;1.40;1.00;;;;;;;12.62;63.97;103073.84;5031348;28;20099;-46
2023/04/03 06:09:55;;;;;;;1.73;1.20;;;;;;;12.63;64.51;103071.09;5022471;28;20034;-49
2023/04/03 06:12:21;;;;;;;0.98;0.90;;;;;;;12.62;64.26;103073.84;5030860;28;20463;-47
2023/04/03 06:14:47;;;;;;;1.52;1.35;;;;;;;12.62;64.28;103081.84;5027469;28;20375;-51
2023/04/03 06:17:13;;;;;;;2.00;1.02;;;;;;;12.61;64.09;103080.97;5031532;28;20043;-51
2023/04/03 06:19:39;;;;;;;1.67;1.05;;;;;;;12.62;64.07;103085.41;5022394;28;20113;-50
2023/04/03 06:22:05;;;;;;;3.50;1.13;;;;;;;12.62;64.42;103079.16;5028472;28;20125;-49
2023/04/03 06:24:31;;;;;;;1.67;1.13;;;;;;;12.62;64.22;103087.19;5026997;28;20036;-51
2023/04/03 06:26:57;;;;;;;1.65;1.23;;;;;;;12.61;64.44;103089.00;5025419;28;20490;-51
2023/04/03 06:29:22;;;;;;;1.63;1.20;;;;;;;12.61;64.59;103088.13;5027969;28;20041;-51
2023/04/03 06:31:49;;;;;;;1.63;1.20;;;;;;;12.61;64.37;103090.81;5023412;28;20414;-50
2023/04/03 06:34:15;;;;;;;2.20;1.25;;;;;;;12.60;64.73;103095.25;5033665;28;20059;-48
2023/04/03 06:36:40;;;;;;;2.75;1.10;;;;;;;12.61;64.45;103096.16;5022106;28;20069;-52
2023/04/03 06:39:06;;;;;;;1.23;0.73;;;;;;;12.60;64.24;103097.06;5030838;28;20045;-52
2023/04/03 06:41:32;;;;;;;4.22;1.25;;;;;;;12.59;64.54;103098.00;5036686;28;20128;-52
2023/04/03 06:43:58;;;;;;;1.75;1.00;;;;;;;12.58;64.40;103098.94;5030197;28;20044;-52
2023/04/03 06:46:25;;;;;;;5.82;1.17;;;;;;;12.57;64.12;103099.88;5029324;28;20044;-51
2023/04/03 06:48:52;;;;;;;1.20;1.10;;;;;;;12.56;64.16;103106.13;5024626;28;20029;-51
2023/04/03 06:51:26;;;;;;;1.77;0.95;;;;;;;12.56;64.34;103104.31;5026375;28;20037;-52
2023/04/03 06:53:54;;;;;;;1.77;1.10;;;;;;;12.55;64.73;103104.41;5026920;28;20029;-51
2023/04/03 06:56:20;;;;;;;2.28;1.02;;;;;;;12.55;64.60;103105.25;5024969;28;20109;-52
2023/04/03 06:58:46;;;;;;;1.48;1.00;;;;;;;12.55;64.29;103115.09;5032524;28;20028;-52
2023/04/03 07:01:13;;;;;;;2.60;1.15;;;;;;;12.54;64.11;103114.19;5027685;28;20100;-52
2023/04/03 07:03:39;;;;;;;2.78;1.40;;;;;;;12.55;64.16;103117.75;5030472;28;20055;-50
2023/04/03 07:06:10;;;;;;;1.13;0.98;;;;;;;12.54;64.71;103113.34;5027428;28;20029;-52
2023/04/03 07:08:36;;;;;;;1.98;1.10;;;;;;;12.55;64.58;103120.44;5021959;28;20099;-52
2023/04/03 07:11:02;;;;;;;2.67;1.00;;;;;;;12.55;64.40;103112.41;5025533;28;20029;-52
2023/04/03 07:13:28;;;;;;;1.58;0.90;;;;;;;12.51;64.24;103107.16;5026824;28;20044;-52
2023/04/03 07:15:53;;;;;;;1.55;1.10;;;;;;;12.53;64.24;103120.47;5027038;28;20486;-52
2023/04/03 07:18:19;;;;;;;1.95;1.10;;;;;;;12.52;64.47;103116.91;5029123;28;20374;-52
2023/04/03 07:20:44;;;;;;;1.13;1.00;;;;;;;12.52;64.33;103116.91;5030400;28;20113;-52
2023/04/03 07:23:10;;;;;;;1.02;0.80;;;;;;;12.51;64.47;103120.53;5025693;28;20044;-52
2023/04/03 07:25:36;;;;;;;2.13;0.98;;;;;;;12.51;64.52;103114.31;5031953;28;20040;-52
2023/04/03 07:28:01;;;;;;;1.90;1.17;;;;;;;12.50;64.65;103115.25;5026833;28;20021;-53
2023/04/03 07:30:27;;;;;;;1.40;0.93;;;;;;;12.51;64.35;103127.69;5031353;28;20546;-52
2023/04/03 07:32:52;;;;;;;1.63;0.90;;;;;;;12.51;64.71;103128.56;5027973;28;20049;-52
2023/04/03 07:35:18;;;;;;;1.05;0.90;;;;;;;12.51;64.32;103130.34;5029296;28;20033;-52
2023/04/03 07:37:44;;;;;;;1.42;0.80;;;;;;;12.50;64.27;103134.81;5030919;28;20037;-51
2023/04/03 07:40:09;;;;;;;1.85;0.70;;;;;;;12.50;64.13;103137.47;5030970;28;20026;-51
2023/04/03 07:42:36;;;;;;;1.17;1.08;;;;;;;12.50;64.78;103136.63;5028556;28;20410;-52
2023/04/03 07:45:02;;;;;;;1.73;1.10;;;;;;;12.49;64.77;103143.75;5033063;28;20037;-51
2023/04/03 07:47:27;;;;;;;0.90;0.82;;;;;;;12.49;64.22;103140.22;5035858;28;20041;-51
2023/04/03 07:49:53;;;;;;;1.88;1.23;;;;;;;12.50;64.69;103144.63;5030769;28;20036;-52
2023/04/03 07:52:18;;;;;;;1.35;0.90;;;;;;;12.49;64.22;103140.22;5034878;28;20125;-52
2023/04/03 07:54:44;;;;;;;1.65;0.93;;;;;;;12.50;64.54;103141.97;5030712;28;20080;-51
2023/04/03 07:57:09;;;;;;;1.33;0.82;;;;;;;12.50;64.34;103139.28;5033509;28;20037;-52
2023/04/03 07:59:35;;;;;;;1.17;0.90;;;;;;;12.49;64.53;103146.44;5029092;28;20041;-50
2023/04/03 08:02:00;;;;;;;1.75;0.80;;;;;;;12.48;64.22;103144.69;5030204;28;20072;-52
2023/04/03 08:04:26;;;;;;;0.88;0.80;;;;;;;12.48;64.29;103152.69;5027244;28;20046;-52
2023/04/03 08:06:52;;;;;;;1.85;1.02;;;;;;;12.48;64.56;103150.03;5033974;28;20030;-51
2023/04/03 08:09:18;;;;;;;1.55;1.00;;;;;;;12.48;64.27;103152.69;5026873;28;20057;-51
2023/04/03 08:11:44;;;;;;;1.95;1.00;;;;;;;12.48;64.46;103143.81;5029696;28;20053;-51
2023/04/03 08:14:15;;;;;;;1.65;1.10;;;;;;;12.48;64.29;103146.50;5029571;28;20084;-52
2023/04/03 08:16:42;;;;;;;1.38;0.98;;;;;;;12.48;64.44;103147.34;5027083;28;20067;-52
2023/04/03 08:19:08;;;;;;;1.33;0.75;;;;;;;12.47;64.34;103150.97;5034369;28;20021;-46
2023/04/03 08:21:33;;;;;;;1.02;0.90;;;;;;;12.48;64.60;103146.50;5032164;28;20029;-50
2023/04/03 08:23:59;;;;;;;0.93;0.70;;;;;;;12.47;64.41;103148.28;5028858;28;20110;-50
2023/04/03 08:26:26;;;;;;;0.88;0.80;;;;;;;12.47;64.52;103150.97;5028949;28;20076;-45
2023/04/03 08:28:52;;;;;;;1.55;0.98;;;;;;;12.46;64.45;103149.19;5034029;28;20033;-48
2023/04/03 08:31:19;;;;;;;2.13;1.08;;;;;;;12.46;64.53;103149.19;5025436;28;20046;-51
2023/04/03 08:33:46;;;;;;;1.00;0.80;;;;;;;12.46;64.45;103151.00;5033664;28;20546;-52
2023/04/03 08:36:21;;;;;;;1.15;0.70;;;;;;;12.46;64.59;103157.22;5035564;28;20474;-52
2023/04/03 08:38:47;;;;;;;1.33;0.90;;;;;;;12.47;64.24;103160.75;5028020;28;20049;-52
2023/04/03 08:41:36;;;;;;;1.55;0.90;;;;;;;12.50;64.62;103161.53;5029884;28;20521;-52
2023/04/03 08:44:22;;;;;;;3.10;1.02;;;;;;;12.46;64.57;103157.22;5029508;28;20479;-52
2023/04/03 08:46:50;;;;;;;1.27;0.82;;;;;;;12.46;64.50;103157.22;5027899;28;20355;-51
2023/04/03 08:49:51;;;;;;;0.85;0.77;;;;;;;12.47;64.35;103155.41;5046324;28;20025;-52
2023/04/03 08:52:41;;;;;;;2.70;0.80;;;;;;;12.51;64.87;103165.97;5031643;28;20490;-52
2023/04/03 08:55:27;;;;;;;1.40;0.80;;;;;;;12.48;64.27;103160.72;5022353;28;20037;-52
2023/04/03 08:58:10;;;;;;;0.80;0.70;;;;;;;12.48;64.83;103168.72;5029860;28;20453;-51
2023/04/03 09:00:58;;;;;;;1.45;0.70;;;;;;;12.50;64.43;103169.53;5029440;28;20029;-52
2023/04/03 09:03:24;;;;;;;1.92;0.88;;;;;;;12.46;64.33;103167.03;5032030;28;20083;-52
2023/04/03 09:05:56;;;;;;;2.17;0.80;;;;;;;12.46;64.45;103161.69;5027161;28;20037;-52
2023/04/03 09:08:29;;;;;;;0.80;0.80;;;;;;;12.46;64.10;103167.03;5034764;28;20048;-52
2023/04/03 09:11:28;;;;;;;1.95;0.90;;;;;;;12.48;64.62;103160.72;5025506;28;20034;-52
2023/04/03 09:14:06;;;;;;;1.35;0.90;;;;;;;12.46;64.15;103162.56;5025830;28;20026;-52
2023/04/03 09:16:47;;;;;;;2.47;0.90;;;;;;;12.45;64.34;103168.84;5031992;28;20069;-53
2023/04/03 09:19:38;;;;;;;2.07;0.80;;;;;;;12.50;64.33;103166.00;5031759;28;20032;-52
2023/04/03 09:22:21;;;;;;;1.35;1.00;;;;;;;12.49;64.58;103169.63;5031931;28;20018;-52
2023/04/03 09:24:52;;;;;;;1.55;1.00;;;;;;;12.46;64.21;103175.06;5033969;28;20056;-52
2023/04/03 09:27:17;;;;;;;1.80;1.05;;;;;;;12.46;64.42;103175.94;5032333;28;20021;-52
2023/04/03 09:29:45;;;;;;;2.45;0.77;;;;;;;12.45;64.52;103173.31;5029750;28;20037;-52
2023/04/03 09:32:26;;;;;;;1.27;0.70;;;;;;;12.46;64.76;103175.94;5032404;28;20467;-52
2023/04/03 09:34:53;;;;;;;1.42;0.98;;;;;;;12.43;64.28;103170.72;5026219;28;20053;-52
2023/04/03 09:37:43;;;;;;;2.22;1.08;;;;;;;12.47;64.36;103167.00;5032733;28;20084;-52
2023/04/03 09:40:29;;;;;;;3.08;0.90;;;;;;;12.47;64.63;103164.31;5026407;28;20036;-52
2023/04/03 09:42:58;;;;;;;2.17;1.00;;;;;;;12.43;64.13;103165.38;5035925;28;20021;-52
2023/04/03 09:45:27;;;;;;;3.53;0.80;;;;;;;12.43;64.20;103156.44;5031188;28;20049;-52
2023/04/03 09:48:14;;;;;;;2.47;0.98;;;;;;;12.46;64.25;103162.56;5032709;28;20101;-52
2023/04/03 09:50:55;;;;;;;3.22;0.82;;;;;;;12.45;64.54;103149.25;5028181;28;20034;-52
2023/04/03 09:53:40;;;;;;;1.38;0.73;;;;;;;12.47;64.56;103150.06;5027662;28;20034;-51
2023/04/03 09:56:17;;;;;;;2.05;0.80;;;;;;;12.45;64.53;103142.13;5031258;28;20025;-53
2023/04/03 09:58:48;;;;;;;3.17;0.90;;;;;;;12.44;64.20;103143.03;5027458;28;20103;-52
2023/04/03 10:01:29;;;;;;;1.40;0.80;;;;;;;12.46;64.37;103135.84;5032884;28;20033;-52
2023/04/03 10:04:10;;;;;;;1.00;0.80;;;;;;;12.47;64.66;103142.06;5031581;28;20025;-52
2023/04/03 10:06:43;;;;;;;1.80;0.93;;;;;;;12.44;64.11;103145.72;5027351;28;20038;-52
2023/04/03 10:09:34;;;;;;;1.85;0.73;;;;;;;12.48;64.29;103139.34;5032997;28;20021;-53
2023/04/03 10:12:20;;;;;;;1.27;0.73;;;;;;;12.48;64.24;103117.97;5032451;28;20045;-52
2023/04/03 10:14:57;;;;;;;1.58;0.98;;;;;;;12.46;64.60;103132.31;5031073;28;20040;-52
2023/04/03 10:17:53;;;;;;;1.00;0.90;;;;;;;12.47;64.20;103132.25;5024395;28;20587;-52
2023/04/03 10:20:43;;;;;;;2.72;0.90;;;;;;;12.48;64.15;103142.00;5028251;28;20479;-52
2023/04/03 10:23:21;;;;;;;0.88;0.70;;;;;;;12.46;64.31;103138.50;5029377;28;20025;-52
2023/04/03 10:26:05;;;;;;;0.80;0.80;;;;;;;12.47;64.27;103132.25;5031402;28;20025;-52
2023/04/03 10:28:40;;;;;;;2.53;0.88;;;;;;;12.45;63.88;103123.44;5023023;28;20037;-51
2023/04/03 10:31:14;;;;;;;2.28;0.93;;;;;;;12.46;63.88;103118.94;5030354;28;20463;-53
2023/04/03 10:33:48;;;;;;;1.55;0.80;;;;;;;12.45;64.18;103107.41;5023559;28;20072;-52
2023/04/03 10:36:19;;;;;;;2.70;0.82;;;;;;;12.44;63.97;103110.97;5029267;28;20134;-52
2023/04/03 10:39:05;;;;;;;1.08;0.80;;;;;;;12.47;64.09;103105.53;5034703;28;20036;-52
2023/04/03 10:41:52;;;;;;;0.95;0.77;;;;;;;12.48;63.73;103112.63;5028048;28;20083;-50
2023/04/03 10:44:26;;;;;;;1.60;0.70;;;;;;;12.44;63.75;103097.63;5026933;28;20040;-55
2023/04/03 10:47:17;;;;;;;1.65;0.70;;;;;;;12.47;64.22;103105.53;5033122;28;20121;-52
2023/04/03 10:50:10;;;;;;;1.77;0.80;;;;;;;12.46;63.55;103093.09;5023648;28;20045;-53
2023/04/03 10:52:57;;;;;;;1.23;0.60;;;;;;;12.48;63.65;103085.91;5026188;28;20502;-52
2023/04/03 10:55:42;;;;;;;1.50;0.70;;;;;;;12.48;63.74;103096.59;5022395;28;20030;-52
2023/04/03 10:58:20;;;;;;;2.00;1.27;;;;;;;12.46;63.31;103090.44;5034449;28;20032;-51
2023/04/03 11:00:50;;;;;;;0.88;0.85;;;;;;;12.46;63.13;103098.44;5034938;28;20044;-52
2023/04/03 11:03:31;;;;;;;0.93;0.70;;;;;;;12.46;63.39;103090.44;5025684;28;20018;-52
2023/04/03 11:05:59;;;;;;;2.27;0.90;;;;;;;12.45;62.85;103080.69;5027122;28;20029;-52
2023/04/03 11:08:41;;;;;;;1.63;0.70;;;;;;;12.47;63.39;103081.50;5032883;28;20303;-52
2023/04/03 11:11:16;;;;;;;1.08;0.73;;;;;;;12.46;62.97;103090.44;5027711;28;20029;-52
2023/04/03 11:13:49;;;;;;;2.50;0.70;;;;;;;12.45;63.24;103075.34;5023915;28;20080;-51
2023/04/03 11:16:26;;;;;;;1.38;0.60;;;;;;;12.47;63.22;103081.50;5026593;28;20080;-52
2023/04/03 11:19:21;;;;;;;1.85;0.70;;;;;;;12.50;62.91;103072.47;5021660;28;20041;-52
2023/04/03 11:22:13;;;;;;;1.50;0.82;;;;;;;12.50;62.76;103076.03;5033398;28;20041;-52
2023/04/03 11:24:42;;;;;;;0.90;0.80;;;;;;;12.46;62.03;103076.19;5025186;28;20037;-53
2023/04/03 11:27:18;;;;;;;0.95;0.63;;;;;;;12.45;62.23;103080.69;5029380;28;20029;-51
2023/04/03 11:29:46;;;;;;;0.57;0.57;;;;;;;12.46;62.26;103071.72;5024852;28;20087;-52
2023/04/03 11:32:49;;;;;;;0.73;0.65;;;;;;;12.50;62.52;103067.13;5029821;28;20060;-52
2023/04/03 11:35:18;;;;;;;0.60;0.60;;;;;;;12.47;62.06;103059.22;5026893;28;20083;-51